Time;durP1;ratioP1;P1;durP2;ratioP2;P2;SDS_P1;SDS_P2;PMS_P1;PMS_P2;Temp;Humidity;BMP_temperature;BMP_pressure;BME280_temperature;BME280_humidity;BME280_pressure;Samples;Min_cycle;Max_cycle;Signal;HPM_P1;HPM_P2
2021/01/31 09:22:21;;;;;;;11.30;4.50;;;0.60;99.90;;;;;;5054039;22;20279;-67
2021/01/31 09:24:52;;;;;;;12.77;5.07;;;0.70;99.90;;;;;;5036019;28;20228;-66
2021/01/31 09:27:22;;;;;;;4.97;3.60;;;0.80;99.90;;;;;;5036147;28;20209;-66
2021/01/31 09:29:49;;;;;;;10.27;5.40;;;0.80;99.90;;;;;;5036234;28;20272;-66
2021/01/31 09:32:20;;;;;;;8.00;4.00;;;0.80;99.90;;;;;;5036060;28;20654;-66
2021/01/31 09:34:48;;;;;;;7.10;4.13;;;0.80;99.90;;;;;;5035947;28;20663;-67
2021/01/31 09:37:23;;;;;;;9.77;4.53;;;0.90;99.90;;;;;;5035658;28;20239;-67
2021/01/31 09:39:51;;;;;;;9.40;4.20;;;1.10;99.90;;;;;;5036063;28;20259;-66
2021/01/31 09:42:17;;;;;;;9.67;4.27;;;1.20;99.90;;;;;;5035819;28;20238;-70
2021/01/31 09:44:50;;;;;;;7.50;4.30;;;1.20;99.90;;;;;;5035811;28;20205;-67
2021/01/31 09:47:19;;;;;;;5.80;3.30;;;1.20;99.90;;;;;;5035627;28;20204;-67
2021/01/31 09:49:49;;;;;;;8.13;4.33;;;1.10;99.90;;;;;;5035692;28;20205;-66
2021/01/31 09:52:16;;;;;;;6.97;4.00;;;1.20;99.90;;;;;;5035812;28;20227;-66
2021/01/31 09:54:43;;;;;;;10.77;4.53;;;1.30;99.90;;;;;;5033986;28;20251;-67
2021/01/31 09:57:20;;;;;;;7.33;3.73;;;1.40;99.90;;;;;;5034068;28;20235;-66
2021/01/31 09:59:46;;;;;;;9.60;4.10;;;1.40;99.90;;;;;;5034233;28;20670;-66
2021/01/31 10:02:17;;;;;;;9.47;4.93;;;1.50;99.90;;;;;;5035115;28;20300;-66
2021/01/31 10:04:46;;;;;;;6.13;3.57;;;1.50;99.90;;;;;;5034967;28;20344;-69
2021/01/31 10:07:15;;;;;;;6.93;3.67;;;1.60;99.90;;;;;;5034663;28;20983;-67
2021/01/31 10:09:46;;;;;;;8.00;3.90;;;1.60;99.90;;;;;;5035130;28;20263;-72
2021/01/31 10:12:28;;;;;;;8.33;4.60;;;1.60;99.90;;;;;;5034026;28;20623;-72
2021/01/31 10:14:57;;;;;;;12.77;4.50;;;1.70;99.90;;;;;;5032622;28;20216;-69
2021/01/31 10:17:37;;;;;;;6.33;3.60;;;1.70;99.90;;;;;;5034193;28;20706;-71
2021/01/31 10:20:28;;;;;;;7.80;4.43;;;1.70;99.90;;;;;;5034697;28;20208;-69
2021/01/31 10:22:55;;;;;;;8.27;4.40;;;1.80;99.90;;;;;;5034126;28;20208;-71
2021/01/31 10:25:23;;;;;;;9.80;4.23;;;1.80;99.90;;;;;;5033978;28;20267;-72
2021/01/31 10:27:50;;;;;;;8.77;4.43;;;1.80;99.90;;;;;;5034486;28;20229;-71
2021/01/31 10:30:22;;;;;;;9.70;4.10;;;1.70;99.90;;;;;;5034668;28;20209;-67
2021/01/31 10:32:49;;;;;;;13.97;4.00;;;1.80;99.90;;;;;;5032724;28;20197;-71
2021/01/31 10:35:26;;;;;;;8.73;4.63;;;1.70;99.90;;;;;;5025035;28;20208;-74
2021/01/31 10:37:52;;;;;;;7.73;3.57;;;1.80;99.90;;;;;;5019446;28;20237;-68
2021/01/31 10:40:19;;;;;;;8.13;3.83;;;1.90;99.90;;;;;;5024643;28;20202;-67
2021/01/31 10:42:46;;;;;;;7.27;4.23;;;1.80;99.90;;;;;;5031042;28;20205;-66
2021/01/31 10:45:15;;;;;;;8.77;4.47;;;1.70;99.90;;;;;;5034280;28;20255;-68
2021/01/31 10:47:43;;;;;;;5.00;2.70;;;1.70;99.90;;;;;;5034143;28;20232;-67
2021/01/31 10:50:11;;;;;;;8.30;4.10;;;1.60;99.90;;;;;;5033778;28;20739;-67
2021/01/31 10:52:37;;;;;;;9.17;4.57;;;1.60;99.90;;;;;;5033223;28;20204;-66
2021/01/31 10:55:04;;;;;;;9.97;4.57;;;1.70;99.90;;;;;;5034003;28;20231;-71
2021/01/31 10:57:31;;;;;;;8.95;5.10;;;1.90;99.90;;;;;;5032941;28;20452;-66
2021/01/31 10:59:58;;;;;;;10.70;5.00;;;2.20;99.90;;;;;;5033807;28;20205;-69
2021/01/31 11:02:24;;;;;;;8.70;3.50;;;2.00;99.90;;;;;;5033593;28;20219;-70
2021/01/31 11:04:51;;;;;;;7.87;4.20;;;1.90;99.90;;;;;;5033960;28;20216;-70
2021/01/31 11:07:17;;;;;;;7.90;4.10;;;1.70;99.90;;;;;;5033314;28;20212;-73
2021/01/31 11:09:43;;;;;;;11.10;4.23;;;1.90;99.90;;;;;;5033953;28;20209;-70
2021/01/31 11:12:10;;;;;;;6.93;3.33;;;1.90;99.90;;;;;;5033314;28;20220;-72
2021/01/31 11:14:36;;;;;;;10.83;4.87;;;1.90;99.90;;;;;;5033544;28;20303;-72
2021/01/31 11:17:03;;;;;;;9.67;3.90;;;1.90;99.90;;;;;;5033473;28;20216;-71
2021/01/31 11:19:29;;;;;;;8.77;4.13;;;2.10;99.90;;;;;;5033184;28;20231;-69
2021/01/31 11:21:55;;;;;;;7.40;4.10;;;2.20;99.90;;;;;;5033109;28;20212;-70
2021/01/31 11:24:21;;;;;;;7.53;3.47;;;2.20;99.90;;;;;;5033428;28;20729;-72
2021/01/31 11:26:48;;;;;;;11.07;4.23;;;2.20;99.90;;;;;;5033077;28;20208;-69
2021/01/31 11:29:14;;;;;;;9.27;3.57;;;2.20;99.90;;;;;;5033541;28;20228;-73
2021/01/31 11:31:40;;;;;;;8.47;4.27;;;2.10;99.90;;;;;;5032435;28;20218;-70
2021/01/31 11:34:07;;;;;;;3.90;2.50;;;2.10;99.90;;;;;;5032795;28;20205;-72
2021/01/31 11:36:34;;;;;;;8.40;4.27;;;2.10;99.90;;;;;;5033142;28;20204;-67
2021/01/31 11:39:06;;;;;;;8.77;4.00;;;2.10;99.90;;;;;;5032575;28;20295;-69
2021/01/31 11:41:33;;;;;;;8.13;4.33;;;2.10;99.90;;;;;;5033222;28;20667;-68
2021/01/31 11:43:59;;;;;;;9.00;4.40;;;2.30;99.90;;;;;;5032959;28;20201;-69
2021/01/31 11:46:25;;;;;;;7.03;4.13;;;2.50;99.90;;;;;;5032676;28;20216;-68
2021/01/31 11:48:51;;;;;;;9.17;4.27;;;2.60;99.90;;;;;;5032869;28;20251;-68
2021/01/31 11:51:18;;;;;;;10.07;4.10;;;2.60;99.90;;;;;;5032619;28;20675;-69
2021/01/31 11:53:45;;;;;;;7.07;3.67;;;2.50;99.90;;;;;;5028837;28;20205;-70
2021/01/31 11:56:11;;;;;;;7.20;4.10;;;2.40;99.90;;;;;;5022815;28;20591;-68
2021/01/31 11:58:37;;;;;;;8.53;3.57;;;2.50;99.90;;;;;;5032673;28;20237;-68
2021/01/31 12:01:03;;;;;;;7.50;3.77;;;2.40;99.90;;;;;;5014978;28;20823;-67
2021/01/31 12:03:30;;;;;;;8.63;4.20;;;2.50;99.90;;;;;;5013093;28;20252;-65
2021/01/31 12:05:56;;;;;;;8.60;3.37;;;2.60;99.90;;;;;;5024111;28;20215;-68
2021/01/31 12:08:23;;;;;;;6.63;3.93;;;2.50;99.90;;;;;;5032655;28;20730;-69
2021/01/31 12:10:49;;;;;;;7.50;3.70;;;2.60;99.90;;;;;;5032742;28;20205;-66
2021/01/31 12:13:16;;;;;;;8.27;4.00;;;2.60;99.90;;;;;;5032788;28;20207;-65
2021/01/31 12:15:42;;;;;;;5.70;2.80;;;2.70;99.90;;;;;;5032701;28;20236;-66
2021/01/31 12:18:09;;;;;;;9.90;4.30;;;2.80;99.90;;;;;;5032560;28;20237;-65
2021/01/31 12:20:35;;;;;;;7.57;3.90;;;2.70;99.90;;;;;;5032879;28;20220;-65
2021/01/31 12:23:01;;;;;;;8.47;3.60;;;2.60;99.90;;;;;;5032177;28;20231;-63
2021/01/31 12:25:28;;;;;;;7.57;4.07;;;2.80;99.90;;;;;;5032423;28;20205;-63
2021/01/31 12:27:56;;;;;;;9.17;3.90;;;3.00;99.90;;;;;;5032201;28;20768;-63
2021/01/31 12:30:25;;;;;;;8.83;4.00;;;3.00;99.90;;;;;;5032866;28;20212;-63
2021/01/31 12:32:51;;;;;;;9.33;4.20;;;3.00;99.90;;;;;;5032709;28;20208;-63
2021/01/31 12:35:17;;;;;;;6.87;3.47;;;2.90;99.90;;;;;;5032317;28;20216;-65
2021/01/31 12:37:44;;;;;;;6.67;3.33;;;3.00;99.90;;;;;;5032091;28;20243;-63
2021/01/31 12:40:12;;;;;;;8.83;3.97;;;2.80;99.90;;;;;;5032386;28;20664;-63
2021/01/31 12:42:39;;;;;;;9.80;4.17;;;2.70;99.90;;;;;;5032229;28;20208;-64
2021/01/31 12:45:07;;;;;;;6.40;3.60;;;2.90;99.90;;;;;;5032019;28;20209;-64
2021/01/31 12:47:33;;;;;;;7.90;3.80;;;2.90;99.90;;;;;;5032001;28;20248;-63
2021/01/31 12:49:59;;;;;;;7.30;3.63;;;3.00;99.90;;;;;;5032177;28;20204;-64
2021/01/31 12:52:25;;;;;;;8.87;4.20;;;3.00;99.90;;;;;;5032247;28;20219;-65
2021/01/31 12:54:51;;;;;;;6.07;3.43;;;3.10;99.90;;;;;;5032205;28;20259;-64
2021/01/31 12:57:18;;;;;;;7.60;3.70;;;2.90;99.90;;;;;;5032375;28;20212;-65
2021/01/31 12:59:45;;;;;;;8.03;4.20;;;2.90;99.90;;;;;;5032011;28;20215;-64
2021/01/31 13:02:11;;;;;;;6.60;3.30;;;3.00;99.90;;;;;;5031889;28;20680;-65
2021/01/31 13:04:37;;;;;;;7.40;3.70;;;3.00;99.90;;;;;;5032067;28;20544;-64
2021/01/31 13:07:04;;;;;;;8.53;3.70;;;3.10;99.90;;;;;;5032097;28;20211;-65
2021/01/31 13:09:30;;;;;;;5.73;3.23;;;3.00;99.90;;;;;;5032036;28;20229;-66
2021/01/31 13:11:57;;;;;;;7.97;3.50;;;2.90;99.90;;;;;;5030380;28;20251;-66
2021/01/31 13:14:23;;;;;;;4.53;2.60;;;2.80;99.90;;;;;;5022694;28;20248;-65
2021/01/31 13:16:50;;;;;;;4.43;2.43;;;2.80;99.90;;;;;;5020561;28;20256;-64
2021/01/31 13:19:17;;;;;;;7.60;4.17;;;2.70;99.90;;;;;;5021815;28;20233;-65
2021/01/31 13:21:43;;;;;;;7.30;3.70;;;2.70;99.90;;;;;;5014787;28;20206;-65
2021/01/31 13:24:09;;;;;;;7.33;4.07;;;2.70;99.90;;;;;;5012228;28;20209;-64
2021/01/31 13:26:35;;;;;;;7.80;3.73;;;2.90;99.90;;;;;;5013043;28;20198;-65
2021/01/31 13:29:02;;;;;;;5.87;3.27;;;2.90;99.90;;;;;;5013864;28;20229;-67
2021/01/31 13:31:29;;;;;;;7.13;3.73;;;3.00;99.90;;;;;;5012503;28;20212;-66
2021/01/31 13:33:56;;;;;;;7.73;3.77;;;2.90;99.90;;;;;;5012321;28;20217;-67
2021/01/31 13:36:22;;;;;;;9.07;4.27;;;2.90;99.90;;;;;;5015614;28;20210;-64
2021/01/31 13:38:48;;;;;;;7.97;4.03;;;2.80;99.90;;;;;;5015249;28;20240;-65
2021/01/31 13:41:15;;;;;;;8.70;4.37;;;2.80;99.90;;;;;;5016030;28;20746;-67
2021/01/31 13:43:41;;;;;;;6.27;3.20;;;2.80;99.90;;;;;;5015944;28;20576;-67
2021/01/31 13:46:07;;;;;;;6.57;3.30;;;3.00;99.90;;;;;;5015799;28;20232;-67
2021/01/31 13:48:33;;;;;;;7.63;3.60;;;2.90;99.90;;;;;;5015150;28;20236;-65
2021/01/31 13:51:01;;;;;;;8.50;3.80;;;3.00;99.90;;;;;;5022708;28;20198;-65
2021/01/31 13:53:27;;;;;;;8.13;3.87;;;3.00;99.90;;;;;;5016001;28;20205;-66
2021/01/31 13:55:53;;;;;;;7.00;3.23;;;3.00;99.90;;;;;;5015616;28;20236;-67
2021/01/31 13:58:19;;;;;;;7.60;3.90;;;3.10;99.90;;;;;;5015504;28;20311;-65
2021/01/31 14:00:47;;;;;;;7.23;3.90;;;3.10;99.90;;;;;;5015450;28;20616;-65
2021/01/31 14:03:13;;;;;;;7.33;3.90;;;3.20;99.90;;;;;;5015532;28;20568;-65
2021/01/31 14:05:40;;;;;;;9.63;3.80;;;3.20;99.90;;;;;;5015328;28;20205;-67
2021/01/31 14:08:07;;;;;;;8.23;3.77;;;3.10;99.90;;;;;;5015030;28;20229;-64
2021/01/31 14:10:33;;;;;;;10.03;4.47;;;3.00;99.90;;;;;;5015465;28;20206;-67
2021/01/31 14:13:00;;;;;;;8.57;4.57;;;3.00;99.90;;;;;;5015388;28;20216;-67
2021/01/31 14:15:26;;;;;;;8.53;4.10;;;3.10;99.90;;;;;;5015852;28;21292;-66
2021/01/31 14:17:52;;;;;;;8.73;4.20;;;3.30;99.90;;;;;;5015201;28;20722;-66
2021/01/31 14:20:21;;;;;;;9.83;4.67;;;3.20;99.90;;;;;;5014989;28;20202;-64
2021/01/31 14:22:47;;;;;;;7.07;3.93;;;3.10;99.90;;;;;;5014681;28;20214;-65
2021/01/31 14:25:15;;;;;;;8.07;4.00;;;3.00;99.90;;;;;;5015388;28;20212;-65
2021/01/31 14:27:41;;;;;;;9.03;4.67;;;2.90;99.90;;;;;;5015095;28;20719;-66
2021/01/31 14:30:10;;;;;;;7.60;4.00;;;3.00;99.90;;;;;;5015147;28;20202;-65
2021/01/31 14:32:36;;;;;;;8.27;4.00;;;3.00;99.90;;;;;;5014648;28;20206;-64
2021/01/31 14:35:03;;;;;;;6.80;3.60;;;3.10;99.90;;;;;;5014852;28;20209;-67
2021/01/31 14:37:35;;;;;;;10.17;4.37;;;3.00;99.90;;;;;;5014779;28;20229;-64
2021/01/31 14:40:01;;;;;;;8.70;4.30;;;3.10;99.90;;;;;;5015119;28;20252;-66
2021/01/31 14:42:28;;;;;;;7.40;3.73;;;3.00;99.90;;;;;;5014999;28;20213;-65
2021/01/31 14:44:54;;;;;;;7.47;3.33;;;3.00;99.90;;;;;;5014512;28;20213;-68
2021/01/31 14:47:20;;;;;;;9.70;3.63;;;3.00;99.90;;;;;;5014672;28;20209;-64
2021/01/31 14:49:47;;;;;;;10.90;4.30;;;3.00;99.90;;;;;;5014451;28;20703;-65
2021/01/31 14:52:13;;;;;;;7.07;3.83;;;3.10;99.90;;;;;;5014307;28;20206;-64
2021/01/31 14:54:39;;;;;;;8.20;4.13;;;3.10;99.90;;;;;;5014634;28;20214;-65
2021/01/31 14:57:05;;;;;;;9.00;4.57;;;3.10;99.90;;;;;;5014703;28;20217;-65
2021/01/31 14:59:33;;;;;;;6.43;3.97;;;3.10;99.90;;;;;;5014594;28;20234;-65
2021/01/31 15:01:59;;;;;;;7.60;3.70;;;3.00;99.90;;;;;;5014511;28;20683;-65
2021/01/31 15:04:25;;;;;;;6.37;3.20;;;3.10;99.90;;;;;;5014566;28;20214;-64
2021/01/31 15:06:52;;;;;;;6.40;3.23;;;3.00;99.90;;;;;;5014128;28;20210;-64
2021/01/31 15:09:19;;;;;;;11.50;4.87;;;3.00;99.90;;;;;;5014299;28;20280;-64
2021/01/31 15:11:45;;;;;;;10.77;5.27;;;3.00;99.90;;;;;;5014360;28;20213;-65
2021/01/31 15:14:12;;;;;;;8.87;4.50;;;3.10;99.90;;;;;;5014264;28;20213;-65
2021/01/31 15:16:39;;;;;;;7.87;4.40;;;3.20;99.90;;;;;;5014019;28;20212;-65
2021/01/31 15:19:07;;;;;;;7.50;3.90;;;3.10;99.90;;;;;;5014837;28;20596;-65
2021/01/31 15:21:33;;;;;;;8.77;4.40;;;3.00;99.90;;;;;;5013180;28;20726;-65
2021/01/31 15:24:00;;;;;;;9.80;4.60;;;3.10;99.90;;;;;;5013347;28;20209;-66
2021/01/31 15:26:27;;;;;;;9.80;4.47;;;3.00;99.90;;;;;;5013114;28;20276;-66
2021/01/31 15:28:53;;;;;;;11.33;4.37;;;3.10;99.90;;;;;;5013689;28;20237;-66
2021/01/31 15:31:20;;;;;;;7.80;3.43;;;3.10;99.90;;;;;;5013473;28;20210;-64
2021/01/31 15:33:48;;;;;;;8.73;4.40;;;3.20;99.90;;;;;;5024938;28;20212;-65
2021/01/31 15:36:14;;;;;;;6.70;3.50;;;3.10;99.90;;;;;;5033423;28;20205;-64
2021/01/31 15:38:41;;;;;;;9.10;4.63;;;3.00;99.90;;;;;;5033465;28;20236;-67
2021/01/31 15:41:08;;;;;;;8.63;4.37;;;3.00;99.90;;;;;;5033030;28;20205;-65
2021/01/31 15:43:35;;;;;;;9.20;4.23;;;3.00;99.90;;;;;;5032142;28;20215;-66
2021/01/31 15:46:01;;;;;;;8.23;4.77;;;2.90;99.90;;;;;;5033008;28;20212;-65
2021/01/31 15:48:28;;;;;;;9.63;4.23;;;3.00;99.90;;;;;;5033304;28;20626;-67
2021/01/31 15:50:55;;;;;;;8.33;4.50;;;3.00;99.90;;;;;;5033233;28;20216;-67
2021/01/31 15:53:21;;;;;;;9.03;4.77;;;3.00;99.90;;;;;;5028716;28;20201;-65
2021/01/31 15:55:47;;;;;;;9.23;4.73;;;3.10;99.90;;;;;;5022777;28;20193;-65
2021/01/31 15:58:14;;;;;;;7.67;4.20;;;3.10;99.90;;;;;;5014690;28;20348;-65
2021/01/31 16:00:40;;;;;;;8.50;4.60;;;3.10;99.90;;;;;;5019112;28;20651;-65
2021/01/31 16:03:07;;;;;;;8.10;3.83;;;3.00;99.90;;;;;;5021046;28;20256;-65
2021/01/31 16:05:36;;;;;;;7.67;3.60;;;3.00;99.90;;;;;;5013130;28;20205;-65
2021/01/31 16:08:04;;;;;;;5.90;2.50;;;2.90;99.90;;;;;;5013018;28;20226;-65
2021/01/31 16:10:31;;;;;;;12.47;5.23;;;2.80;99.90;;;;;;5019240;28;20208;-64
2021/01/31 16:12:57;;;;;;;12.70;5.30;;;2.70;99.90;;;;;;5016773;28;20260;-66
2021/01/31 16:15:26;;;;;;;12.10;5.37;;;2.80;99.90;;;;;;5013091;28;20212;-64
2021/01/31 16:17:53;;;;;;;12.17;4.63;;;2.70;99.90;;;;;;5012808;28;20631;-66
2021/01/31 16:20:22;;;;;;;10.07;5.03;;;2.70;99.90;;;;;;5020240;28;20205;-68
2021/01/31 16:22:48;;;;;;;10.63;5.30;;;2.70;99.90;;;;;;5032068;28;20216;-64
2021/01/31 16:25:16;;;;;;;9.10;5.00;;;2.70;99.90;;;;;;5032304;28;20210;-66
2021/01/31 16:27:42;;;;;;;11.70;4.83;;;2.70;99.90;;;;;;5031890;28;20727;-64
2021/01/31 16:30:12;;;;;;;15.50;4.50;;;2.70;99.90;;;;;;5028211;28;20205;-66
2021/01/31 16:32:38;;;;;;;14.53;4.60;;;2.70;99.90;;;;;;5030661;28;20262;-65
2021/01/31 16:35:06;;;;;;;10.77;4.93;;;2.80;99.90;;;;;;5030731;28;20200;-65
2021/01/31 16:37:33;;;;;;;11.30;4.33;;;2.70;99.90;;;;;;5030563;28;20315;-67
2021/01/31 16:39:59;;;;;;;9.67;5.20;;;2.70;99.90;;;;;;5031501;28;20209;-65
2021/01/31 16:42:26;;;;;;;9.40;4.77;;;2.70;99.90;;;;;;5032772;28;20665;-65
2021/01/31 16:44:53;;;;;;;12.27;5.37;;;2.80;99.90;;;;;;5032700;28;20263;-66
2021/01/31 16:47:19;;;;;;;10.10;4.93;;;2.80;99.90;;;;;;5032087;28;20204;-67
2021/01/31 16:49:46;;;;;;;11.83;5.17;;;2.70;99.90;;;;;;5032465;28;20224;-67
2021/01/31 16:52:12;;;;;;;13.73;5.10;;;2.60;99.90;;;;;;5031959;28;20201;-68
2021/01/31 16:54:38;;;;;;;9.20;4.87;;;2.70;99.90;;;;;;5032494;28;20205;-66
2021/01/31 16:57:05;;;;;;;9.47;5.47;;;2.60;99.90;;;;;;5032380;28;20204;-69
2021/01/31 16:59:32;;;;;;;17.87;6.53;;;2.60;99.90;;;;;;5032113;28;20240;-70
2021/01/31 17:01:58;;;;;;;11.23;6.00;;;2.60;99.90;;;;;;5032008;28;20197;-66
2021/01/31 17:04:25;;;;;;;10.63;4.80;;;2.60;99.90;;;;;;5032098;28;21247;-66
2021/01/31 17:06:51;;;;;;;9.57;5.27;;;2.60;99.90;;;;;;5031748;28;20209;-65
2021/01/31 17:09:17;;;;;;;10.67;5.13;;;2.60;99.90;;;;;;5033850;28;20638;-72
2021/01/31 17:11:43;;;;;;;12.23;5.53;;;2.60;99.90;;;;;;5036318;28;20205;-66
2021/01/31 17:14:09;;;;;;;8.70;5.00;;;2.60;99.90;;;;;;5036151;28;20667;-72
2021/01/31 17:16:37;;;;;;;10.37;5.93;;;2.60;99.90;;;;;;5036035;28;20212;-68
2021/01/31 17:19:03;;;;;;;13.20;5.40;;;2.60;99.90;;;;;;5035589;28;20240;-65
2021/01/31 17:21:29;;;;;;;9.97;5.33;;;2.60;99.90;;;;;;5035430;28;20213;-66
2021/01/31 17:23:55;;;;;;;11.53;5.80;;;2.70;99.90;;;;;;5035513;28;20244;-66
2021/01/31 17:26:21;;;;;;;11.13;5.70;;;2.70;99.90;;;;;;5035432;28;20216;-68
2021/01/31 17:28:48;;;;;;;11.97;5.63;;;2.70;99.90;;;;;;5035646;28;20232;-66
2021/01/31 17:31:14;;;;;;;16.87;6.90;;;2.70;99.90;;;;;;5035749;28;20205;-72
2021/01/31 17:33:41;;;;;;;11.40;5.53;;;2.70;99.90;;;;;;5035607;28;20205;-69
2021/01/31 17:36:08;;;;;;;12.33;5.10;;;2.70;99.90;;;;;;5035332;28;20212;-67
2021/01/31 17:38:34;;;;;;;12.37;5.83;;;2.60;99.90;;;;;;5031214;28;20666;-66
2021/01/31 17:41:00;;;;;;;14.13;6.70;;;2.60;99.90;;;;;;5035697;28;20212;-68
2021/01/31 17:43:26;;;;;;;13.70;6.07;;;2.50;99.90;;;;;;5035783;28;20235;-72
2021/01/31 17:45:53;;;;;;;14.93;6.03;;;2.60;99.90;;;;;;5035751;28;20296;-74
2021/01/31 17:48:23;;;;;;;14.27;5.83;;;2.60;99.90;;;;;;5025981;28;20225;-68
2021/01/31 17:50:51;;;;;;;14.40;6.17;;;2.60;99.90;;;;;;5024532;28;20197;-67
2021/01/31 17:53:17;;;;;;;13.27;5.13;;;2.60;99.90;;;;;;5025879;28;20201;-68
2021/01/31 17:55:44;;;;;;;13.63;5.97;;;2.60;99.90;;;;;;5024450;28;20229;-64
2021/01/31 17:58:11;;;;;;;12.00;5.67;;;2.60;99.90;;;;;;5024147;28;20228;-67
2021/01/31 18:00:37;;;;;;;11.33;6.03;;;2.60;99.90;;;;;;5028779;28;20212;-69
2021/01/31 18:03:03;;;;;;;13.80;7.13;;;2.60;99.90;;;;;;5031147;28;20220;-69
2021/01/31 18:05:30;;;;;;;13.33;6.70;;;2.70;99.90;;;;;;5022309;28;20216;-67
2021/01/31 18:07:57;;;;;;;12.37;5.93;;;2.70;99.90;;;;;;5026747;28;20653;-68
2021/01/31 18:10:24;;;;;;;12.47;5.87;;;2.70;99.90;;;;;;5032964;28;20208;-67
2021/01/31 18:12:50;;;;;;;12.90;6.47;;;2.70;99.90;;;;;;5032339;28;20201;-66
2021/01/31 18:15:17;;;;;;;12.50;5.47;;;2.70;99.90;;;;;;5028493;28;20710;-67
2021/01/31 18:17:44;;;;;;;13.93;7.43;;;2.70;99.90;;;;;;5023318;28;20713;-64
2021/01/31 18:20:12;;;;;;;11.73;6.07;;;2.70;99.90;;;;;;5026511;28;20217;-67
2021/01/31 18:22:39;;;;;;;12.50;5.97;;;2.70;99.90;;;;;;5023947;28;20217;-65
2021/01/31 18:25:08;;;;;;;12.57;6.20;;;2.80;99.90;;;;;;5026590;28;20202;-66
2021/01/31 18:27:36;;;;;;;10.67;5.60;;;2.80;99.90;;;;;;5023153;28;20232;-67
2021/01/31 18:30:04;;;;;;;10.73;5.07;;;2.90;99.90;;;;;;5027715;28;20212;-66
2021/01/31 18:32:31;;;;;;;11.33;5.97;;;2.90;99.90;;;;;;5025429;28;20244;-66
2021/01/31 18:34:57;;;;;;;13.03;6.13;;;3.00;99.90;;;;;;5018732;28;20671;-66
2021/01/31 18:37:23;;;;;;;12.57;5.97;;;3.00;99.90;;;;;;5017102;28;20202;-67
2021/01/31 18:39:50;;;;;;;12.33;6.27;;;3.00;99.90;;;;;;5014645;28;20237;-65
2021/01/31 18:42:17;;;;;;;11.80;6.00;;;3.00;99.90;;;;;;5014749;28;20675;-68
2021/01/31 18:44:43;;;;;;;10.60;6.07;;;3.00;99.90;;;;;;5015015;28;20552;-66
2021/01/31 18:47:09;;;;;;;12.77;6.00;;;2.90;99.90;;;;;;5014444;28;20213;-66
2021/01/31 18:49:35;;;;;;;11.23;5.83;;;3.00;99.90;;;;;;5014473;28;20205;-66
2021/01/31 18:52:02;;;;;;;10.33;5.43;;;3.00;99.90;;;;;;5014572;28;20209;-66
2021/01/31 18:54:29;;;;;;;11.17;5.67;;;3.10;99.90;;;;;;5014434;28;20225;-66
2021/01/31 18:56:55;;;;;;;15.03;6.37;;;3.00;99.90;;;;;;5014310;28;20287;-66
2021/01/31 18:59:22;;;;;;;13.53;6.20;;;2.90;99.90;;;;;;5014306;28;20244;-66
2021/01/31 19:01:49;;;;;;;14.80;6.87;;;2.90;99.90;;;;;;5014340;28;20205;-67
2021/01/31 19:04:20;;;;;;;13.13;6.80;;;2.90;99.90;;;;;;5014587;28;20296;-66
2021/01/31 19:06:47;;;;;;;11.63;6.07;;;2.90;99.90;;;;;;5013868;28;20688;-65
2021/01/31 19:09:14;;;;;;;12.20;5.90;;;2.90;99.90;;;;;;5030079;28;20292;-70
2021/01/31 19:11:42;;;;;;;14.23;6.33;;;2.90;99.90;;;;;;5030591;28;20255;-69
2021/01/31 19:14:08;;;;;;;13.80;5.97;;;3.00;99.90;;;;;;5033466;28;20251;-69
2021/01/31 19:16:36;;;;;;;12.07;6.10;;;2.90;99.90;;;;;;5033718;28;20204;-69
2021/01/31 19:19:03;;;;;;;16.40;7.07;;;2.90;99.90;;;;;;5033196;28;20248;-69
2021/01/31 19:21:29;;;;;;;16.40;7.30;;;3.00;99.90;;;;;;5029187;28;20209;-70
2021/01/31 19:23:56;;;;;;;14.43;6.43;;;3.00;99.90;;;;;;5016227;28;20210;-70
2021/01/31 19:26:22;;;;;;;12.93;5.33;;;3.00;99.90;;;;;;5022619;28;20210;-71
2021/01/31 19:28:49;;;;;;;12.63;6.23;;;3.00;99.90;;;;;;5023089;28;20572;-69
2021/01/31 19:31:15;;;;;;;11.20;4.93;;;3.00;99.90;;;;;;5014638;28;20213;-80
2021/01/31 19:33:43;;;;;;;10.93;5.47;;;3.10;99.90;;;;;;5020700;28;20209;-70
2021/01/31 19:36:10;;;;;;;13.10;6.07;;;3.10;99.90;;;;;;5031829;28;20568;-69
2021/01/31 19:38:36;;;;;;;12.57;5.97;;;3.10;99.90;;;;;;5024589;28;20233;-70
2021/01/31 19:41:02;;;;;;;9.13;5.57;;;3.00;99.90;;;;;;5021247;28;20205;-70
2021/01/31 19:43:29;;;;;;;14.07;6.90;;;3.10;99.90;;;;;;5022475;28;20206;-78
2021/01/31 19:45:56;;;;;;;16.33;6.27;;;3.10;99.90;;;;;;5021875;28;20201;-74
2021/01/31 19:48:22;;;;;;;12.33;5.57;;;3.20;99.90;;;;;;5025054;28;20251;-71
2021/01/31 19:50:50;;;;;;;16.73;5.93;;;3.20;99.90;;;;;;5026131;28;20589;-70
2021/01/31 19:53:17;;;;;;;9.13;5.67;;;3.10;99.90;;;;;;5023741;28;20201;-70
2021/01/31 19:55:44;;;;;;;12.80;6.90;;;3.10;99.90;;;;;;5027435;28;20217;-69
2021/01/31 19:58:12;;;;;;;11.53;6.17;;;3.10;99.90;;;;;;5026355;28;20232;-70
2021/01/31 20:00:38;;;;;;;12.17;5.83;;;3.20;99.90;;;;;;5023185;28;20209;-71
2021/01/31 20:03:05;;;;;;;8.70;4.90;;;3.20;99.90;;;;;;5029057;28;20271;-69
2021/01/31 20:05:33;;;;;;;9.90;5.00;;;3.20;99.90;;;;;;5030765;28;20212;-70
2021/01/31 20:08:00;;;;;;;12.87;5.53;;;3.20;99.90;;;;;;5023853;28;20591;-70
2021/01/31 20:10:26;;;;;;;10.70;4.90;;;3.20;99.90;;;;;;5024721;28;20688;-70
2021/01/31 20:12:52;;;;;;;12.60;6.10;;;3.20;99.90;;;;;;5032439;28;20201;-69
2021/01/31 20:15:20;;;;;;;11.63;5.93;;;3.20;99.90;;;;;;5025220;28;20201;-70
2021/01/31 20:17:47;;;;;;;11.83;6.10;;;3.10;99.90;;;;;;5018240;28;20232;-70
2021/01/31 20:20:14;;;;;;;10.60;5.40;;;3.10;99.90;;;;;;5024127;28;20282;-70
2021/01/31 20:22:40;;;;;;;12.10;5.23;;;3.20;99.90;;;;;;5032044;28;20212;-70
2021/01/31 20:25:09;;;;;;;11.63;5.43;;;3.20;99.90;;;;;;5027178;28;20224;-70
2021/01/31 20:27:36;;;;;;;14.43;5.67;;;3.20;99.90;;;;;;5029549;28;20221;-76
2021/01/31 20:30:04;;;;;;;12.33;6.37;;;3.20;99.90;;;;;;5015585;28;20301;-70
2021/01/31 20:32:30;;;;;;;13.30;5.67;;;3.20;99.90;;;;;;5023387;28;20660;-70
2021/01/31 20:34:56;;;;;;;14.03;5.63;;;3.30;99.90;;;;;;5028718;28;20205;-69
2021/01/31 20:37:23;;;;;;;10.27;5.37;;;3.30;99.90;;;;;;5026705;28;20239;-70
2021/01/31 20:39:49;;;;;;;13.93;5.53;;;3.20;99.90;;;;;;5024729;28;20239;-70
2021/01/31 20:42:16;;;;;;;12.50;5.57;;;3.20;99.90;;;;;;5019654;28;20206;-80
2021/01/31 20:44:42;;;;;;;11.57;5.87;;;3.20;99.90;;;;;;5025626;28;20651;-70
2021/01/31 20:47:08;;;;;;;13.83;6.63;;;3.20;99.90;;;;;;5024040;28;20687;-80
2021/01/31 20:49:35;;;;;;;10.80;5.90;;;3.20;99.90;;;;;;5025905;28;20595;-81
2021/01/31 20:52:01;;;;;;;11.70;5.10;;;3.20;99.90;;;;;;5022783;28;20205;-70
2021/01/31 20:54:27;;;;;;;11.33;5.10;;;3.20;99.90;;;;;;5024603;28;20201;-71
2021/01/31 20:56:53;;;;;;;10.27;5.20;;;3.20;99.90;;;;;;5020406;28;20212;-70
2021/01/31 20:59:20;;;;;;;10.23;5.27;;;3.30;99.90;;;;;;5020430;28;20242;-78
2021/01/31 21:01:47;;;;;;;12.73;5.83;;;3.30;99.90;;;;;;5026051;28;20212;-70
2021/01/31 21:04:13;;;;;;;8.97;4.63;;;3.30;99.90;;;;;;5020867;28;20275;-71
2021/01/31 21:06:41;;;;;;;12.17;5.60;;;3.30;99.90;;;;;;5020350;28;20200;-70
2021/01/31 21:09:07;;;;;;;12.37;6.07;;;3.30;99.90;;;;;;5020125;28;20228;-70
2021/01/31 21:11:34;;;;;;;11.03;5.43;;;3.30;99.90;;;;;;5028245;28;20252;-68
2021/01/31 21:14:01;;;;;;;8.93;4.97;;;3.30;99.90;;;;;;5021913;28;20202;-68
2021/01/31 21:16:28;;;;;;;12.77;5.40;;;3.30;99.90;;;;;;5018409;28;20206;-69
2021/01/31 21:18:54;;;;;;;9.77;5.23;;;3.30;99.90;;;;;;5024469;28;20259;-68
2021/01/31 21:21:21;;;;;;;10.43;5.40;;;3.30;99.90;;;;;;5021440;28;20272;-68
2021/01/31 21:23:47;;;;;;;14.53;5.23;;;3.40;99.90;;;;;;5024905;28;20576;-75
2021/01/31 21:26:13;;;;;;;9.97;5.17;;;3.30;99.90;;;;;;5017280;28;20205;-68
2021/01/31 21:28:40;;;;;;;13.83;5.50;;;3.30;99.90;;;;;;5028274;28;20236;-71
2021/01/31 21:31:07;;;;;;;8.80;4.80;;;3.30;99.90;;;;;;5029521;28;20217;-70
2021/01/31 21:33:34;;;;;;;9.97;5.27;;;3.30;99.90;;;;;;5026772;28;20722;-68
2021/01/31 21:36:01;;;;;;;11.60;5.53;;;3.30;99.90;;;;;;5021594;28;20945;-73
2021/01/31 21:38:27;;;;;;;10.30;5.30;;;3.40;99.90;;;;;;5034756;28;20695;-69
2021/01/31 21:40:53;;;;;;;9.50;4.97;;;3.30;99.90;;;;;;5023261;28;20678;-69
2021/01/31 21:43:20;;;;;;;10.87;5.57;;;3.30;99.90;;;;;;5023554;28;20216;-69
2021/01/31 21:45:46;;;;;;;14.33;5.47;;;3.30;99.90;;;;;;5027282;28;20216;-78
2021/01/31 21:48:12;;;;;;;13.00;4.53;;;3.30;99.90;;;;;;5019185;28;20248;-73
2021/01/31 21:50:39;;;;;;;9.43;4.90;;;3.30;99.90;;;;;;5029020;28;20220;-72
2021/01/31 21:53:06;;;;;;;10.70;5.37;;;3.30;99.90;;;;;;5027689;28;20212;-76
2021/01/31 21:55:32;;;;;;;10.33;5.37;;;3.30;99.90;;;;;;5024038;28;20208;-71
2021/01/31 21:57:58;;;;;;;11.50;5.10;;;3.30;99.90;;;;;;5030196;28;20236;-68
2021/01/31 22:00:29;;;;;;;11.60;5.60;;;3.30;99.90;;;;;;5021537;28;20228;-68
2021/01/31 22:02:56;;;;;;;10.37;5.60;;;3.30;99.90;;;;;;5027377;28;20212;-72
2021/01/31 22:05:22;;;;;;;14.03;5.43;;;3.30;99.90;;;;;;5021697;28;20209;-70
2021/01/31 22:07:49;;;;;;;9.40;4.90;;;3.30;99.90;;;;;;5021442;28;20255;-69
2021/01/31 22:10:16;;;;;;;11.23;4.93;;;3.40;99.90;;;;;;5020644;28;20212;-68
2021/01/31 22:12:42;;;;;;;10.47;5.43;;;3.40;99.90;;;;;;5020746;28;20730;-71